sensor_id;sensor_type;location;lat;lon;timestamp;temperature;humidity
38428;DHT22;24211;49.980;19.776;2022-12-29T00:01:05;4.00;99.90
38428;DHT22;24211;49.980;19.776;2022-12-29T00:03:32;4.00;99.90
38428;DHT22;24211;49.980;19.776;2022-12-29T00:06:00;4.00;99.90
38428;DHT22;24211;49.980;19.776;2022-12-29T00:08:28;4.00;99.90
38428;DHT22;24211;49.980;19.776;2022-12-29T00:11:34;4.10;99.90
38428;DHT22;24211;49.980;19.776;2022-12-29T00:14:02;4.10;99.90
38428;DHT22;24211;49.980;19.776;2022-12-29T00:16:52;4.00;99.90
38428;DHT22;24211;49.980;19.776;2022-12-29T00:19:19;4.00;99.90
38428;DHT22;24211;49.980;19.776;2022-12-29T00:22:07;4.00;99.90
38428;DHT22;24211;49.980;19.776;2022-12-29T00:24:55;4.00;99.90
38428;DHT22;24211;49.980;19.776;2022-12-29T00:27:29;4.00;99.90
38428;DHT22;24211;49.980;19.776;2022-12-29T00:30:21;4.00;99.90
38428;DHT22;24211;49.980;19.776;2022-12-29T00:33:13;4.00;99.90
38428;DHT22;24211;49.980;19.776;2022-12-29T00:36:05;4.00;99.90
38428;DHT22;24211;49.980;19.776;2022-12-29T01:07:18;3.90;99.90
38428;DHT22;24211;49.980;19.776;2022-12-29T01:09:45;3.90;99.90
38428;DHT22;24211;49.980;19.776;2022-12-29T01:12:33;4.00;99.90
38428;DHT22;24211;49.980;19.776;2022-12-29T01:15:11;3.90;99.90
38428;DHT22;24211;49.980;19.776;2022-12-29T01:17:42;3.90;99.90
38428;DHT22;24211;49.980;19.776;2022-12-29T01:20:10;3.90;99.90
38428;DHT22;24211;49.980;19.776;2022-12-29T01:22:38;3.90;99.90
38428;DHT22;24211;49.980;19.776;2022-12-29T01:25:06;3.90;99.90
38428;DHT22;24211;49.980;19.776;2022-12-29T01:27:34;3.90;99.90
38428;DHT22;24211;49.980;19.776;2022-12-29T01:30:01;3.90;99.90
38428;DHT22;24211;49.980;19.776;2022-12-29T01:32:31;3.90;99.90
38428;DHT22;24211;49.980;19.776;2022-12-29T01:34:58;3.90;99.90
38428;DHT22;24211;49.980;19.776;2022-12-29T01:37:28;3.90;99.90
38428;DHT22;24211;49.980;19.776;2022-12-29T01:39:56;3.90;99.90
38428;DHT22;24211;49.980;19.776;2022-12-29T01:42:24;3.90;99.90
38428;DHT22;24211;49.980;19.776;2022-12-29T01:44:57;3.90;99.90
38428;DHT22;24211;49.980;19.776;2022-12-29T01:47:36;3.90;99.90
38428;DHT22;24211;49.980;19.776;2022-12-29T01:50:29;3.90;99.90
38428;DHT22;24211;49.980;19.776;2022-12-29T01:53:15;3.90;99.90
38428;DHT22;24211;49.980;19.776;2022-12-29T01:55:51;3.90;99.90
38428;DHT22;24211;49.980;19.776;2022-12-29T01:58:26;3.90;99.90
38428;DHT22;24211;49.980;19.776;2022-12-29T02:00:57;3.90;99.90
38428;DHT22;24211;49.980;19.776;2022-12-29T02:03:27;3.90;99.90
38428;DHT22;24211;49.980;19.776;2022-12-29T02:06:16;3.90;99.90
38428;DHT22;24211;49.980;19.776;2022-12-29T02:08:50;3.90;99.90
38428;DHT22;24211;49.980;19.776;2022-12-29T02:11:23;3.90;99.90
38428;DHT22;24211;49.980;19.776;2022-12-29T02:13:53;3.90;99.90
38428;DHT22;24211;49.980;19.776;2022-12-29T02:17:29;3.80;99.90
38428;DHT22;24211;49.980;19.776;2022-12-29T02:28:40;3.90;99.90
38428;DHT22;24211;49.980;19.776;2022-12-29T02:34:23;3.90;99.90
38428;DHT22;24211;49.980;19.776;2022-12-29T02:37:30;3.90;99.90
38428;DHT22;24211;49.980;19.776;2022-12-29T02:40:03;3.90;99.90
38428;DHT22;24211;49.980;19.776;2022-12-29T02:48:06;3.90;99.90
38428;DHT22;24211;49.980;19.776;2022-12-29T02:51:14;3.90;99.90
38428;DHT22;24211;49.980;19.776;2022-12-29T02:53:58;3.90;99.90
38428;DHT22;24211;49.980;19.776;2022-12-29T02:56:47;3.90;99.90
38428;DHT22;24211;49.980;19.776;2022-12-29T02:59:14;3.90;99.90
38428;DHT22;24211;49.980;19.776;2022-12-29T03:11:12;3.90;99.90
38428;DHT22;24211;49.980;19.776;2022-12-29T03:14:09;3.90;99.90
38428;DHT22;24211;49.980;19.776;2022-12-29T03:17:29;3.90;99.90
38428;DHT22;24211;49.980;19.776;2022-12-29T03:20:17;3.90;99.90
38428;DHT22;24211;49.980;19.776;2022-12-29T03:22:55;3.90;99.90
38428;DHT22;24211;49.980;19.776;2022-12-29T03:25:33;3.90;99.90
38428;DHT22;24211;49.980;19.776;2022-12-29T03:28:19;3.90;99.90
38428;DHT22;24211;49.980;19.776;2022-12-29T03:30:50;3.90;99.90
38428;DHT22;24211;49.980;19.776;2022-12-29T03:33:23;3.90;99.90
38428;DHT22;24211;49.980;19.776;2022-12-29T03:35:58;3.80;99.90
38428;DHT22;24211;49.980;19.776;2022-12-29T03:38:43;3.90;99.90
38428;DHT22;24211;49.980;19.776;2022-12-29T03:41:19;3.90;99.90
38428;DHT22;24211;49.980;19.776;2022-12-29T03:43:58;3.90;99.90
38428;DHT22;24211;49.980;19.776;2022-12-29T03:46:29;3.90;99.90
38428;DHT22;24211;49.980;19.776;2022-12-29T03:48:56;3.90;99.90
38428;DHT22;24211;49.980;19.776;2022-12-29T03:51:24;3.90;99.90
38428;DHT22;24211;49.980;19.776;2022-12-29T03:53:53;3.80;99.90
38428;DHT22;24211;49.980;19.776;2022-12-29T03:56:21;3.80;99.90
38428;DHT22;24211;49.980;19.776;2022-12-29T03:58:49;3.80;99.90
38428;DHT22;24211;49.980;19.776;2022-12-29T04:01:23;3.80;99.90
38428;DHT22;24211;49.980;19.776;2022-12-29T04:03:50;3.80;99.90
38428;DHT22;24211;49.980;19.776;2022-12-29T04:06:18;3.80;99.90
38428;DHT22;24211;49.980;19.776;2022-12-29T04:08:50;3.80;99.90
38428;DHT22;24211;49.980;19.776;2022-12-29T04:11:18;3.80;99.90
38428;DHT22;24211;49.980;19.776;2022-12-29T04:13:45;3.80;99.90
38428;DHT22;24211;49.980;19.776;2022-12-29T04:16:17;3.80;99.90
38428;DHT22;24211;49.980;19.776;2022-12-29T04:18:45;3.80;99.90
38428;DHT22;24211;49.980;19.776;2022-12-29T04:21:12;3.80;99.90
38428;DHT22;24211;49.980;19.776;2022-12-29T04:23:41;3.80;99.90
38428;DHT22;24211;49.980;19.776;2022-12-29T04:26:10;3.80;99.90
38428;DHT22;24211;49.980;19.776;2022-12-29T04:28:48;3.80;99.90
38428;DHT22;24211;49.980;19.776;2022-12-29T04:31:42;3.80;99.90
38428;DHT22;24211;49.980;19.776;2022-12-29T04:34:10;3.80;99.90
38428;DHT22;24211;49.980;19.776;2022-12-29T04:36:38;3.80;99.90
38428;DHT22;24211;49.980;19.776;2022-12-29T04:39:07;3.80;99.90
38428;DHT22;24211;49.980;19.776;2022-12-29T04:41:36;3.80;99.90
38428;DHT22;24211;49.980;19.776;2022-12-29T04:44:06;3.80;99.90
38428;DHT22;24211;49.980;19.776;2022-12-29T04:46:56;3.80;99.90
38428;DHT22;24211;49.980;19.776;2022-12-29T04:49:47;3.80;99.90
38428;DHT22;24211;49.980;19.776;2022-12-29T04:52:32;3.80;99.90
38428;DHT22;24211;49.980;19.776;2022-12-29T04:55:02;3.80;99.90
38428;DHT22;24211;49.980;19.776;2022-12-29T04:57:31;3.80;99.90
38428;DHT22;24211;49.980;19.776;2022-12-29T05:00:00;3.80;99.90
38428;DHT22;24211;49.980;19.776;2022-12-29T05:02:29;3.80;99.90
38428;DHT22;24211;49.980;19.776;2022-12-29T05:04:56;3.80;99.90
38428;DHT22;24211;49.980;19.776;2022-12-29T05:07:25;3.80;99.90
38428;DHT22;24211;49.980;19.776;2022-12-29T05:09:54;3.70;99.90
38428;DHT22;24211;49.980;19.776;2022-12-29T05:12:21;3.70;99.90
38428;DHT22;24211;49.980;19.776;2022-12-29T05:14:56;3.70;99.90
38428;DHT22;24211;49.980;19.776;2022-12-29T05:20:46;3.70;99.90
38428;DHT22;24211;49.980;19.776;2022-12-29T05:23:14;3.70;99.90
38428;DHT22;24211;49.980;19.776;2022-12-29T05:25:45;3.70;99.90
38428;DHT22;24211;49.980;19.776;2022-12-29T05:28:33;3.70;99.90
38428;DHT22;24211;49.980;19.776;2022-12-29T05:31:07;3.70;99.90
38428;DHT22;24211;49.980;19.776;2022-12-29T05:33:34;3.70;99.90
38428;DHT22;24211;49.980;19.776;2022-12-29T05:36:07;3.70;99.90
38428;DHT22;24211;49.980;19.776;2022-12-29T05:38:38;3.70;99.90
38428;DHT22;24211;49.980;19.776;2022-12-29T05:41:06;3.70;99.90
38428;DHT22;24211;49.980;19.776;2022-12-29T05:44:00;3.70;99.90
38428;DHT22;24211;49.980;19.776;2022-12-29T05:46:31;3.70;99.90
38428;DHT22;24211;49.980;19.776;2022-12-29T05:49:08;3.70;99.90
38428;DHT22;24211;49.980;19.776;2022-12-29T05:52:45;3.70;99.90
38428;DHT22;24211;49.980;19.776;2022-12-29T05:55:13;3.70;99.90
38428;DHT22;24211;49.980;19.776;2022-12-29T05:57:42;3.60;99.90
38428;DHT22;24211;49.980;19.776;2022-12-29T06:00:13;3.60;99.90
38428;DHT22;24211;49.980;19.776;2022-12-29T06:02:42;3.60;99.90
38428;DHT22;24211;49.980;19.776;2022-12-29T06:05:10;3.50;99.90
38428;DHT22;24211;49.980;19.776;2022-12-29T06:07:39;3.50;99.90
38428;DHT22;24211;49.980;19.776;2022-12-29T06:10:07;3.50;99.90
38428;DHT22;24211;49.980;19.776;2022-12-29T06:12:55;3.10;99.90
38428;DHT22;24211;49.980;19.776;2022-12-29T06:15:23;3.30;99.90
38428;DHT22;24211;49.980;19.776;2022-12-29T06:17:53;3.00;99.90
38428;DHT22;24211;49.980;19.776;2022-12-29T06:20:22;3.10;99.90
38428;DHT22;24211;49.980;19.776;2022-12-29T06:22:49;3.30;99.90
38428;DHT22;24211;49.980;19.776;2022-12-29T06:25:17;3.40;99.90
38428;DHT22;24211;49.980;19.776;2022-12-29T06:27:45;3.50;99.90
38428;DHT22;24211;49.980;19.776;2022-12-29T06:30:12;3.50;99.90
38428;DHT22;24211;49.980;19.776;2022-12-29T06:32:40;3.50;99.90
38428;DHT22;24211;49.980;19.776;2022-12-29T06:35:10;3.30;99.90
38428;DHT22;24211;49.980;19.776;2022-12-29T06:37:45;3.40;99.90
38428;DHT22;24211;49.980;19.776;2022-12-29T06:40:13;3.40;99.90
38428;DHT22;24211;49.980;19.776;2022-12-29T06:42:59;3.40;99.90
38428;DHT22;24211;49.980;19.776;2022-12-29T06:45:40;3.50;99.90
38428;DHT22;24211;49.980;19.776;2022-12-29T06:48:08;3.50;99.90
38428;DHT22;24211;49.980;19.776;2022-12-29T06:50:35;3.00;99.90
38428;DHT22;24211;49.980;19.776;2022-12-29T06:53:03;2.70;99.90
38428;DHT22;24211;49.980;19.776;2022-12-29T06:55:31;2.80;99.90
38428;DHT22;24211;49.980;19.776;2022-12-29T06:57:58;3.10;99.90
38428;DHT22;24211;49.980;19.776;2022-12-29T07:00:27;3.30;99.90
38428;DHT22;24211;49.980;19.776;2022-12-29T07:02:55;3.40;99.90
38428;DHT22;24211;49.980;19.776;2022-12-29T07:15:29;3.20;99.90
38428;DHT22;24211;49.980;19.776;2022-12-29T07:17:57;3.40;99.90
38428;DHT22;24211;49.980;19.776;2022-12-29T07:20:25;3.50;99.90
38428;DHT22;24211;49.980;19.776;2022-12-29T07:22:53;3.50;99.90
38428;DHT22;24211;49.980;19.776;2022-12-29T07:25:21;3.50;99.90
38428;DHT22;24211;49.980;19.776;2022-12-29T07:27:49;3.50;99.90
38428;DHT22;24211;49.980;19.776;2022-12-29T07:30:16;3.60;99.90
38428;DHT22;24211;49.980;19.776;2022-12-29T07:32:44;3.60;99.90
38428;DHT22;24211;49.980;19.776;2022-12-29T07:35:11;3.70;99.90
38428;DHT22;24211;49.980;19.776;2022-12-29T07:37:39;3.70;99.90
38428;DHT22;24211;49.980;19.776;2022-12-29T07:40:07;3.60;99.90
38428;DHT22;24211;49.980;19.776;2022-12-29T07:42:36;3.60;99.90
38428;DHT22;24211;49.980;19.776;2022-12-29T07:45:07;3.60;99.90
38428;DHT22;24211;49.980;19.776;2022-12-29T07:47:48;3.30;99.90
38428;DHT22;24211;49.980;19.776;2022-12-29T07:50:16;3.20;99.90
38428;DHT22;24211;49.980;19.776;2022-12-29T07:52:44;2.90;99.90
38428;DHT22;24211;49.980;19.776;2022-12-29T07:55:16;2.70;99.90
38428;DHT22;24211;49.980;19.776;2022-12-29T07:57:44;2.70;99.90
38428;DHT22;24211;49.980;19.776;2022-12-29T08:00:13;2.70;99.90
38428;DHT22;24211;49.980;19.776;2022-12-29T08:02:41;2.70;99.90
38428;DHT22;24211;49.980;19.776;2022-12-29T08:05:08;2.80;99.90
38428;DHT22;24211;49.980;19.776;2022-12-29T08:10:54;3.30;99.90
38428;DHT22;24211;49.980;19.776;2022-12-29T08:13:21;3.30;99.90
38428;DHT22;24211;49.980;19.776;2022-12-29T08:15:48;3.40;99.90
38428;DHT22;24211;49.980;19.776;2022-12-29T08:18:16;3.40;99.90
38428;DHT22;24211;49.980;19.776;2022-12-29T08:20:43;3.40;99.90
38428;DHT22;24211;49.980;19.776;2022-12-29T08:23:10;3.50;99.90
38428;DHT22;24211;49.980;19.776;2022-12-29T08:25:38;3.50;99.90
38428;DHT22;24211;49.980;19.776;2022-12-29T08:28:05;3.60;99.90
38428;DHT22;24211;49.980;19.776;2022-12-29T08:30:32;3.60;99.90
38428;DHT22;24211;49.980;19.776;2022-12-29T08:33:00;3.60;99.90
38428;DHT22;24211;49.980;19.776;2022-12-29T08:35:30;3.70;99.90
38428;DHT22;24211;49.980;19.776;2022-12-29T08:37:57;3.70;99.90
38428;DHT22;24211;49.980;19.776;2022-12-29T08:45:51;3.70;99.90
38428;DHT22;24211;49.980;19.776;2022-12-29T08:48:19;3.60;99.90
38428;DHT22;24211;49.980;19.776;2022-12-29T08:50:49;3.60;99.90
38428;DHT22;24211;49.980;19.776;2022-12-29T08:53:18;3.60;99.90
38428;DHT22;24211;49.980;19.776;2022-12-29T08:55:46;3.40;99.90
38428;DHT22;24211;49.980;19.776;2022-12-29T09:22:25;3.70;99.90
38428;DHT22;24211;49.980;19.776;2022-12-29T09:24:53;3.70;99.90
38428;DHT22;24211;49.980;19.776;2022-12-29T09:27:20;3.70;99.90
38428;DHT22;24211;49.980;19.776;2022-12-29T09:29:47;3.80;99.90
38428;DHT22;24211;49.980;19.776;2022-12-29T09:32:15;3.80;99.90
38428;DHT22;24211;49.980;19.776;2022-12-29T09:34:45;3.90;99.90
38428;DHT22;24211;49.980;19.776;2022-12-29T09:43:05;4.20;99.90
38428;DHT22;24211;49.980;19.776;2022-12-29T09:49:12;4.70;99.90
38428;DHT22;24211;49.980;19.776;2022-12-29T09:51:59;4.80;99.90
38428;DHT22;24211;49.980;19.776;2022-12-29T09:57:51;5.00;99.90
38428;DHT22;24211;49.980;19.776;2022-12-29T10:00:36;5.70;99.90
38428;DHT22;24211;49.980;19.776;2022-12-29T10:03:24;5.90;99.90
38428;DHT22;24211;49.980;19.776;2022-12-29T10:06:11;6.60;99.90
38428;DHT22;24211;49.980;19.776;2022-12-29T10:08:49;6.70;99.90
38428;DHT22;24211;49.980;19.776;2022-12-29T10:17:53;6.00;99.90
38428;DHT22;24211;49.980;19.776;2022-12-29T10:21:02;5.90;99.90
38428;DHT22;24211;49.980;19.776;2022-12-29T10:23:49;5.90;99.90
38428;DHT22;24211;49.980;19.776;2022-12-29T10:26:21;6.00;99.90
38428;DHT22;24211;49.980;19.776;2022-12-29T10:29:03;6.10;99.90
38428;DHT22;24211;49.980;19.776;2022-12-29T10:31:40;6.30;99.90
38428;DHT22;24211;49.980;19.776;2022-12-29T10:37:42;6.60;99.90
38428;DHT22;24211;49.980;19.776;2022-12-29T10:40:27;6.80;99.90
38428;DHT22;24211;49.980;19.776;2022-12-29T10:43:01;7.10;99.90
38428;DHT22;24211;49.980;19.776;2022-12-29T10:45:50;7.30;99.90
38428;DHT22;24211;49.980;19.776;2022-12-29T10:48:31;7.60;99.90
38428;DHT22;24211;49.980;19.776;2022-12-29T10:51:06;7.70;99.90
38428;DHT22;24211;49.980;19.776;2022-12-29T10:53:42;8.00;99.90
38428;DHT22;24211;49.980;19.776;2022-12-29T10:56:47;8.20;99.90
38428;DHT22;24211;49.980;19.776;2022-12-29T10:59:23;8.50;99.90
38428;DHT22;24211;49.980;19.776;2022-12-29T11:07:32;8.90;99.90
38428;DHT22;24211;49.980;19.776;2022-12-29T11:10:35;9.00;99.90
38428;DHT22;24211;49.980;19.776;2022-12-29T11:13:18;9.10;99.90
38428;DHT22;24211;49.980;19.776;2022-12-29T11:15:51;9.20;99.90
38428;DHT22;24211;49.980;19.776;2022-12-29T11:20:58;9.40;99.90
38428;DHT22;24211;49.980;19.776;2022-12-29T11:23:35;9.60;99.90
38428;DHT22;24211;49.980;19.776;2022-12-29T11:28:38;9.90;99.90
38428;DHT22;24211;49.980;19.776;2022-12-29T11:31:08;9.90;99.90
38428;DHT22;24211;49.980;19.776;2022-12-29T11:33:38;9.90;99.90
38428;DHT22;24211;49.980;19.776;2022-12-29T11:36:08;10.00;99.90
38428;DHT22;24211;49.980;19.776;2022-12-29T11:38:45;10.10;99.90
38428;DHT22;24211;49.980;19.776;2022-12-29T11:41:30;10.10;99.90
38428;DHT22;24211;49.980;19.776;2022-12-29T11:44:04;10.30;99.90
38428;DHT22;24211;49.980;19.776;2022-12-29T11:46:35;10.50;99.90
38428;DHT22;24211;49.980;19.776;2022-12-29T11:49:05;10.60;99.90
38428;DHT22;24211;49.980;19.776;2022-12-29T11:56:58;10.90;99.90
38428;DHT22;24211;49.980;19.776;2022-12-29T12:10:33;11.40;99.90
38428;DHT22;24211;49.980;19.776;2022-12-29T12:16:22;11.50;99.90
38428;DHT22;24211;49.980;19.776;2022-12-29T12:19:02;11.40;99.90
38428;DHT22;24211;49.980;19.776;2022-12-29T12:21:53;11.40;99.90
38428;DHT22;24211;49.980;19.776;2022-12-29T12:26:21;11.50;99.90
38428;DHT22;24211;49.980;19.776;2022-12-29T12:29:11;11.40;99.90
38428;DHT22;24211;49.980;19.776;2022-12-29T12:32:20;11.40;99.90
38428;DHT22;24211;49.980;19.776;2022-12-29T12:35:21;11.30;99.90
38428;DHT22;24211;49.980;19.776;2022-12-29T12:41:12;11.30;99.90
38428;DHT22;24211;49.980;19.776;2022-12-29T12:43:51;11.20;99.90
38428;DHT22;24211;49.980;19.776;2022-12-29T13:01:55;11.30;99.90
38428;DHT22;24211;49.980;19.776;2022-12-29T13:31:40;11.40;99.90
38428;DHT22;24211;49.980;19.776;2022-12-29T13:34:25;11.40;99.90
38428;DHT22;24211;49.980;19.776;2022-12-29T13:37:03;11.40;99.90
38428;DHT22;24211;49.980;19.776;2022-12-29T13:39:51;11.40;99.90
38428;DHT22;24211;49.980;19.776;2022-12-29T13:42:23;11.40;99.90
38428;DHT22;24211;49.980;19.776;2022-12-29T15:34:37;10.00;99.90
38428;DHT22;24211;49.980;19.776;2022-12-29T17:03:42;8.60;99.90
38428;DHT22;24211;49.980;19.776;2022-12-29T19:03:22;7.50;99.90
38428;DHT22;24211;49.980;19.776;2022-12-29T20:28:30;8.00;99.90
38428;DHT22;24211;49.980;19.776;2022-12-29T22:16:52;8.00;99.90
38428;DHT22;24211;49.980;19.776;2022-12-29T22:20:28;8.00;99.90
